Time;durP1;ratioP1;P1;durP2;ratioP2;P2;SDS_P1;SDS_P2;PMS_P1;PMS_P2;Temp;Humidity;BMP_temperature;BMP_pressure;BME280_temperature;BME280_humidity;BME280_pressure;Samples;Min_cycle;Max_cycle;Signal;HPM_P1;HPM_P2
2022/03/02 00:01:23;;;;;;;31.37;13.03;;;1.50;99.90;;;;;;5030238;28;20203;-67
2022/03/02 00:03:50;;;;;;;28.83;14.10;;;1.50;99.90;;;;;;5030124;28;20214;-67
2022/03/02 00:06:18;;;;;;;28.57;13.63;;;1.50;99.90;;;;;;5030309;28;20214;-67
2022/03/02 00:08:45;;;;;;;29.27;13.83;;;1.50;99.90;;;;;;5030369;28;20584;-67
2022/03/02 00:11:12;;;;;;;31.90;14.37;;;1.50;99.90;;;;;;5029632;28;20222;-71
2022/03/02 00:13:39;;;;;;;31.77;14.83;;;1.50;99.90;;;;;;5029885;28;20304;-67
2022/03/02 00:16:06;;;;;;;34.10;15.70;;;1.50;99.90;;;;;;5029789;28;20679;-66
2022/03/02 00:18:33;;;;;;;28.90;14.97;;;1.50;99.90;;;;;;5029875;28;20214;-67
2022/03/02 00:21:00;;;;;;;29.80;14.70;;;1.50;99.90;;;;;;5030211;28;20210;-68
2022/03/02 00:23:29;;;;;;;32.93;14.50;;;1.50;99.90;;;;;;5029612;28;20202;-66
2022/03/02 00:25:56;;;;;;;29.57;14.70;;;1.50;99.90;;;;;;5030294;28;20214;-67
2022/03/02 00:28:23;;;;;;;31.73;14.70;;;1.40;99.90;;;;;;5029410;28;20261;-67
2022/03/02 00:30:50;;;;;;;34.00;14.67;;;1.40;99.90;;;;;;5030100;28;20251;-67
2022/03/02 00:33:18;;;;;;;31.40;15.20;;;1.40;99.90;;;;;;5029530;28;20221;-68
2022/03/02 00:35:45;;;;;;;37.10;15.03;;;1.40;99.90;;;;;;5029362;28;20234;-67
2022/03/02 00:38:12;;;;;;;34.93;15.23;;;1.40;99.90;;;;;;5029376;28;20222;-66
2022/03/02 00:40:41;;;;;;;36.33;15.13;;;1.50;99.90;;;;;;5029526;28;20206;-66
2022/03/02 00:43:09;;;;;;;36.23;15.40;;;1.50;99.90;;;;;;5029827;28;20213;-67
2022/03/02 00:45:36;;;;;;;32.50;14.40;;;1.50;99.90;;;;;;5029774;28;20228;-67
2022/03/02 00:48:05;;;;;;;33.23;15.20;;;1.50;99.90;;;;;;5029715;28;20206;-67
2022/03/02 00:50:32;;;;;;;39.00;14.83;;;1.60;99.90;;;;;;5029532;28;20567;-67
2022/03/02 00:53:00;;;;;;;36.10;15.10;;;1.60;99.90;;;;;;5029440;28;20213;-67
2022/03/02 00:55:27;;;;;;;33.07;14.40;;;1.50;99.90;;;;;;5029387;28;20226;-66
2022/03/02 00:57:55;;;;;;;35.43;16.17;;;1.50;99.90;;;;;;5029281;28;20206;-67
2022/03/02 01:00:22;;;;;;;33.67;14.77;;;1.50;99.90;;;;;;5029362;28;20206;-67
2022/03/02 01:02:49;;;;;;;36.63;14.73;;;1.50;99.90;;;;;;5029192;28;20225;-67
2022/03/02 01:05:16;;;;;;;34.90;15.77;;;1.60;99.90;;;;;;5029212;28;20209;-67
2022/03/02 01:07:43;;;;;;;34.77;16.37;;;1.60;99.90;;;;;;5029113;28;20280;-67
2022/03/02 01:10:11;;;;;;;32.03;14.70;;;1.60;99.90;;;;;;5029191;28;20309;-68
2022/03/02 01:12:39;;;;;;;35.13;15.87;;;1.60;99.90;;;;;;5029436;28;20208;-67
2022/03/02 01:15:08;;;;;;;34.83;15.50;;;1.60;99.90;;;;;;5029067;28;20236;-67
2022/03/02 01:17:35;;;;;;;36.17;16.13;;;1.60;99.90;;;;;;5028912;28;20252;-67
2022/03/02 01:20:02;;;;;;;38.93;16.10;;;1.60;99.90;;;;;;5029158;28;20671;-67
2022/03/02 01:22:29;;;;;;;34.87;16.10;;;1.60;99.90;;;;;;5028493;28;20214;-67
2022/03/02 01:24:56;;;;;;;39.93;17.03;;;1.60;99.90;;;;;;5029095;28;20548;-66
2022/03/02 01:27:23;;;;;;;39.80;15.90;;;1.60;99.90;;;;;;5028907;28;20242;-67
2022/03/02 01:29:51;;;;;;;36.43;15.67;;;1.60;99.90;;;;;;5028977;28;20689;-67
2022/03/02 01:32:19;;;;;;;38.13;16.33;;;1.60;99.90;;;;;;5028827;28;20254;-67
2022/03/02 01:34:47;;;;;;;45.13;17.17;;;1.60;99.90;;;;;;5028975;28;20226;-67
2022/03/02 01:37:14;;;;;;;41.90;18.30;;;1.60;99.90;;;;;;5028780;28;20561;-67
2022/03/02 01:39:41;;;;;;;45.33;16.53;;;1.60;99.90;;;;;;5029029;28;20202;-67
2022/03/02 01:42:08;;;;;;;43.47;17.33;;;1.60;99.90;;;;;;5028717;28;20210;-67
2022/03/02 01:44:36;;;;;;;44.73;18.47;;;1.50;99.90;;;;;;5028603;28;20204;-67
2022/03/02 01:47:05;;;;;;;41.50;16.83;;;1.60;99.90;;;;;;5028456;28;20217;-66
2022/03/02 01:49:34;;;;;;;44.13;18.53;;;1.60;99.90;;;;;;5028720;28;20210;-67
2022/03/02 01:52:01;;;;;;;44.97;17.77;;;1.60;99.90;;;;;;5028404;28;20210;-65
2022/03/02 01:54:28;;;;;;;47.93;18.40;;;1.60;99.90;;;;;;5028976;28;20226;-67
2022/03/02 01:56:55;;;;;;;49.40;18.27;;;1.60;99.90;;;;;;5028359;28;20206;-67
2022/03/02 01:59:22;;;;;;;41.90;18.03;;;1.60;99.90;;;;;;5028870;28;20206;-67
2022/03/02 02:01:49;;;;;;;49.80;18.20;;;1.50;99.90;;;;;;5028740;28;20206;-67
2022/03/02 02:04:16;;;;;;;49.40;19.00;;;1.50;99.90;;;;;;5028470;28;20223;-66
2022/03/02 02:06:44;;;;;;;47.83;18.60;;;1.50;99.90;;;;;;5028733;28;20232;-67
2022/03/02 02:09:11;;;;;;;47.17;19.03;;;1.50;99.90;;;;;;5028518;28;20578;-68
2022/03/02 02:11:38;;;;;;;48.53;19.90;;;1.50;99.90;;;;;;5028728;28;20583;-68
2022/03/02 02:14:05;;;;;;;50.07;18.67;;;1.40;99.90;;;;;;5028061;28;20202;-67
2022/03/02 02:16:31;;;;;;;47.43;19.83;;;1.40;99.90;;;;;;5028325;28;20230;-67
2022/03/02 02:18:58;;;;;;;42.43;18.03;;;1.40;99.90;;;;;;5028275;28;20210;-67
2022/03/02 02:21:29;;;;;;;51.40;18.77;;;1.40;99.90;;;;;;5028154;28;20202;-67
2022/03/02 02:23:55;;;;;;;48.03;19.53;;;1.40;99.90;;;;;;5028284;28;20549;-67
2022/03/02 02:26:22;;;;;;;54.03;19.87;;;1.40;99.90;;;;;;5028389;28;20209;-69
2022/03/02 02:28:51;;;;;;;45.77;18.07;;;1.40;99.90;;;;;;5027877;28;20703;-65
2022/03/02 02:31:18;;;;;;;45.40;18.73;;;1.40;99.90;;;;;;5028377;28;20210;-67
2022/03/02 02:33:44;;;;;;;49.40;19.70;;;1.40;99.90;;;;;;5030679;28;20656;-66
2022/03/02 02:36:11;;;;;;;49.57;19.47;;;1.40;99.90;;;;;;5031700;28;20225;-66
2022/03/02 02:38:39;;;;;;;49.17;18.90;;;1.40;99.90;;;;;;5031624;28;20217;-69
2022/03/02 02:41:06;;;;;;;45.03;19.03;;;1.40;99.90;;;;;;5031474;28;20206;-67
2022/03/02 02:43:33;;;;;;;50.40;19.27;;;1.40;99.90;;;;;;5031648;28;20578;-66
2022/03/02 02:46:00;;;;;;;51.43;19.53;;;1.40;99.90;;;;;;5031374;28;20557;-69
2022/03/02 02:48:27;;;;;;;46.13;19.60;;;1.40;99.90;;;;;;5031768;28;20262;-66
2022/03/02 02:50:54;;;;;;;50.17;19.23;;;1.40;99.90;;;;;;5031215;28;20210;-67
2022/03/02 02:53:20;;;;;;;48.10;18.03;;;1.40;99.90;;;;;;5031276;28;20210;-66
2022/03/02 02:55:50;;;;;;;51.43;19.80;;;1.40;99.90;;;;;;5031220;28;20587;-67
2022/03/02 02:58:17;;;;;;;53.20;19.23;;;1.40;99.90;;;;;;5031323;28;20206;-66
2022/03/02 03:00:46;;;;;;;46.33;19.10;;;1.40;99.90;;;;;;5030829;28;20211;-68
2022/03/02 03:03:13;;;;;;;45.83;19.23;;;1.40;99.90;;;;;;5031349;28;20209;-68
2022/03/02 03:05:40;;;;;;;46.50;19.13;;;1.40;99.90;;;;;;5031228;28;20198;-66
2022/03/02 03:08:09;;;;;;;45.57;18.70;;;1.40;99.90;;;;;;5031087;28;20213;-69
2022/03/02 03:10:37;;;;;;;46.93;18.20;;;1.50;99.90;;;;;;5031024;28;20257;-67
2022/03/02 03:13:05;;;;;;;50.10;19.67;;;1.50;99.90;;;;;;5031265;28;20213;-66
2022/03/02 03:15:33;;;;;;;46.33;18.40;;;1.50;99.90;;;;;;5031192;28;20670;-67
2022/03/02 03:18:00;;;;;;;49.80;18.87;;;1.60;99.90;;;;;;5030683;28;20248;-68
2022/03/02 03:20:28;;;;;;;49.10;18.67;;;1.60;99.90;;;;;;5031145;28;20711;-67
2022/03/02 03:22:56;;;;;;;47.93;18.37;;;1.50;99.90;;;;;;5030786;28;20570;-66
2022/03/02 03:25:23;;;;;;;46.57;18.83;;;1.50;99.90;;;;;;5030978;28;20656;-67
2022/03/02 03:27:51;;;;;;;51.90;19.97;;;1.50;99.90;;;;;;5030568;28;20237;-67
2022/03/02 03:30:22;;;;;;;46.60;18.27;;;1.50;99.90;;;;;;5030563;28;20224;-68
2022/03/02 03:32:50;;;;;;;48.50;19.03;;;1.50;99.90;;;;;;5030902;28;20285;-67
2022/03/02 03:35:19;;;;;;;51.50;20.30;;;1.40;99.90;;;;;;5030637;28;20226;-67
2022/03/02 03:37:46;;;;;;;45.60;19.83;;;1.50;99.90;;;;;;5030622;28;20206;-67
2022/03/02 03:40:16;;;;;;;51.00;20.23;;;1.40;99.90;;;;;;5030458;28;20216;-68
2022/03/02 03:42:44;;;;;;;48.90;19.80;;;1.50;99.90;;;;;;5030488;28;20210;-67
2022/03/02 03:45:12;;;;;;;54.73;20.67;;;1.40;99.90;;;;;;5030194;28;20228;-68
2022/03/02 03:47:40;;;;;;;47.30;19.87;;;1.50;99.90;;;;;;5030639;28;20214;-68
2022/03/02 03:50:09;;;;;;;48.40;19.57;;;1.50;99.90;;;;;;5030311;28;20245;-67
2022/03/02 03:52:37;;;;;;;55.53;21.77;;;1.50;99.90;;;;;;5030472;28;20206;-67
2022/03/02 03:55:04;;;;;;;54.73;20.77;;;1.50;99.90;;;;;;5030375;28;20214;-67
2022/03/02 03:57:31;;;;;;;51.57;20.13;;;1.50;99.90;;;;;;5030108;28;20214;-67
2022/03/02 03:59:58;;;;;;;54.17;20.50;;;1.40;99.90;;;;;;5030322;28;20238;-67
2022/03/02 04:02:25;;;;;;;46.37;18.70;;;1.40;99.90;;;;;;5030481;28;20217;-68
2022/03/02 04:04:53;;;;;;;50.43;20.43;;;1.50;99.90;;;;;;5030193;28;20201;-67
2022/03/02 04:07:20;;;;;;;48.07;19.37;;;1.50;99.90;;;;;;5030082;28;20216;-66
2022/03/02 04:09:47;;;;;;;55.80;20.27;;;1.40;99.90;;;;;;5030003;28;20321;-67
2022/03/02 04:12:14;;;;;;;45.00;18.93;;;1.50;99.90;;;;;;5030235;28;20706;-67
2022/03/02 04:14:41;;;;;;;47.73;17.53;;;1.50;99.90;;;;;;5029988;28;20241;-67
2022/03/02 04:17:08;;;;;;;49.47;20.43;;;1.50;99.90;;;;;;5029894;28;20222;-66
2022/03/02 04:19:35;;;;;;;48.87;19.30;;;1.50;99.90;;;;;;5029951;28;20686;-67
2022/03/02 04:22:04;;;;;;;46.27;18.97;;;1.50;99.90;;;;;;5030153;28;20252;-66
2022/03/02 04:24:31;;;;;;;48.70;19.00;;;1.50;99.90;;;;;;5029600;28;20258;-67
2022/03/02 04:26:58;;;;;;;46.93;18.97;;;1.50;99.90;;;;;;5029787;28;20214;-67
2022/03/02 04:29:24;;;;;;;52.80;20.17;;;1.50;99.90;;;;;;5029592;28;20297;-66
2022/03/02 04:31:51;;;;;;;51.17;20.17;;;1.40;99.90;;;;;;5029698;28;20572;-68
2022/03/02 04:34:18;;;;;;;48.40;19.00;;;1.50;99.90;;;;;;5029855;28;20202;-67
2022/03/02 04:36:45;;;;;;;50.57;21.10;;;1.50;99.90;;;;;;5029521;28;20230;-66
2022/03/02 04:39:13;;;;;;;48.77;18.67;;;1.40;99.90;;;;;;5029677;28;20206;-68
2022/03/02 04:41:40;;;;;;;52.10;20.43;;;1.40;99.90;;;;;;5029302;28;20220;-67
2022/03/02 04:44:07;;;;;;;47.57;19.10;;;1.40;99.90;;;;;;5029332;28;20220;-67
2022/03/02 04:46:33;;;;;;;45.70;19.50;;;1.40;99.90;;;;;;5029505;28;20199;-68
2022/03/02 04:49:10;;;;;;;46.87;19.13;;;1.40;99.90;;;;;;5029462;28;20678;-67
2022/03/02 04:51:37;;;;;;;50.47;19.93;;;1.40;99.90;;;;;;5029161;28;20302;-66
2022/03/02 04:54:04;;;;;;;51.83;20.20;;;1.50;99.90;;;;;;5029502;28;20206;-67
2022/03/02 04:56:32;;;;;;;50.20;18.73;;;1.50;99.90;;;;;;5028294;28;20582;-66
2022/03/02 04:59:01;;;;;;;46.90;19.23;;;1.50;99.90;;;;;;5029573;28;20659;-69
2022/03/02 05:01:28;;;;;;;44.63;19.40;;;1.50;99.90;;;;;;5029229;28;20255;-66
2022/03/02 05:03:55;;;;;;;53.10;20.93;;;1.50;99.90;;;;;;5029104;28;20270;-67
2022/03/02 05:06:21;;;;;;;48.20;20.30;;;1.50;99.90;;;;;;5029413;28;20557;-67
2022/03/02 05:08:48;;;;;;;46.00;19.63;;;1.50;99.90;;;;;;5029209;28;20504;-68
2022/03/02 05:11:15;;;;;;;48.60;20.23;;;1.50;99.90;;;;;;5029172;28;20575;-67
2022/03/02 05:13:43;;;;;;;50.47;20.47;;;1.50;99.90;;;;;;5028774;28;20287;-67
2022/03/02 05:16:10;;;;;;;46.07;19.17;;;1.50;99.90;;;;;;5029006;28;20580;-67
2022/03/02 05:18:41;;;;;;;49.17;19.70;;;1.50;99.90;;;;;;5029143;28;20683;-68
2022/03/02 05:21:08;;;;;;;46.60;20.10;;;1.40;99.90;;;;;;5029213;28;20222;-68
2022/03/02 05:23:35;;;;;;;45.77;19.60;;;1.50;99.90;;;;;;5028861;28;20213;-67
2022/03/02 05:26:02;;;;;;;46.67;19.93;;;1.50;99.90;;;;;;5029118;28;20582;-66
2022/03/02 05:28:29;;;;;;;51.43;19.97;;;1.50;99.90;;;;;;5028648;28;20734;-67
2022/03/02 05:30:57;;;;;;;51.60;20.40;;;1.50;99.90;;;;;;5028836;28;20206;-67
2022/03/02 05:33:23;;;;;;;47.63;20.17;;;1.50;99.90;;;;;;5028671;28;20210;-66
2022/03/02 05:35:50;;;;;;;47.20;20.23;;;1.50;99.90;;;;;;5028622;28;20233;-66
2022/03/02 05:38:17;;;;;;;50.47;19.53;;;1.50;99.90;;;;;;5028899;28;20202;-67
2022/03/02 05:40:44;;;;;;;46.80;19.73;;;1.50;99.90;;;;;;5028629;28;20212;-66
2022/03/02 05:43:11;;;;;;;47.30;19.37;;;1.40;99.90;;;;;;5028838;28;20594;-67
2022/03/02 05:45:38;;;;;;;49.37;20.27;;;1.40;99.90;;;;;;5028868;28;20206;-66
2022/03/02 05:48:06;;;;;;;50.90;20.33;;;1.40;99.90;;;;;;5028823;28;20203;-67
2022/03/02 05:50:33;;;;;;;52.57;20.20;;;1.40;99.90;;;;;;5028371;28;20259;-67
2022/03/02 05:53:00;;;;;;;49.53;20.40;;;1.40;99.90;;;;;;5028732;28;20202;-67
2022/03/02 05:55:27;;;;;;;48.90;19.83;;;1.40;99.90;;;;;;5028258;28;20206;-66
2022/03/02 05:57:53;;;;;;;49.10;19.50;;;1.40;99.90;;;;;;5028368;28;20202;-68
2022/03/02 06:00:20;;;;;;;42.40;18.63;;;1.40;99.90;;;;;;5028212;28;20216;-68
2022/03/02 06:02:47;;;;;;;45.03;19.57;;;1.50;99.90;;;;;;5028129;28;20210;-67
2022/03/02 06:05:15;;;;;;;47.07;20.13;;;1.40;99.90;;;;;;5028487;28;20213;-66
2022/03/02 06:07:42;;;;;;;49.30;19.27;;;1.50;99.90;;;;;;5029112;28;20639;-66
2022/03/02 06:10:11;;;;;;;44.40;18.80;;;1.50;99.90;;;;;;5031820;28;20232;-66
2022/03/02 06:12:39;;;;;;;42.73;19.20;;;1.50;99.90;;;;;;5031968;28;20212;-67
2022/03/02 06:15:07;;;;;;;42.83;18.53;;;1.50;99.90;;;;;;5031951;28;20213;-68
2022/03/02 06:17:35;;;;;;;42.73;18.77;;;1.50;99.90;;;;;;5031832;28;20828;-68
2022/03/02 06:20:02;;;;;;;40.73;17.93;;;1.50;99.90;;;;;;5031961;28;20208;-68
2022/03/02 06:22:30;;;;;;;48.83;19.83;;;1.60;99.90;;;;;;5031915;28;20541;-67
2022/03/02 06:24:58;;;;;;;42.67;17.77;;;1.50;99.90;;;;;;5031552;28;20213;-68
2022/03/02 06:27:25;;;;;;;38.50;17.93;;;1.50;99.90;;;;;;5031211;28;20294;-66
2022/03/02 06:29:52;;;;;;;45.63;18.53;;;1.50;99.90;;;;;;5031594;28;20203;-67
2022/03/02 06:32:18;;;;;;;42.13;18.37;;;1.50;99.90;;;;;;5031331;28;20210;-66
2022/03/02 06:34:45;;;;;;;42.83;18.00;;;1.60;99.90;;;;;;5031420;28;20561;-68
2022/03/02 06:37:13;;;;;;;44.37;18.43;;;1.60;99.90;;;;;;5031322;28;20232;-66
2022/03/02 06:39:41;;;;;;;39.43;17.30;;;1.60;99.90;;;;;;5031240;28;20255;-68
2022/03/02 06:42:17;;;;;;;46.23;19.07;;;1.60;99.90;;;;;;5031514;28;20302;-68
2022/03/02 06:44:52;;;;;;;40.07;17.43;;;1.60;99.90;;;;;;5031351;28;20197;-66
2022/03/02 06:47:20;;;;;;;43.20;17.97;;;1.60;99.90;;;;;;5031437;28;20631;-67
2022/03/02 06:50:03;;;;;;;36.87;17.00;;;1.60;99.90;;;;;;5031572;28;20202;-67
2022/03/02 06:52:34;;;;;;;43.40;18.07;;;1.70;99.90;;;;;;5031248;28;20222;-66
2022/03/02 06:55:06;;;;;;;42.33;17.60;;;1.70;99.90;;;;;;5031157;28;20198;-66
2022/03/02 06:57:33;;;;;;;37.43;16.80;;;1.70;99.90;;;;;;5031029;28;20609;-66
2022/03/02 07:00:03;;;;;;;39.73;17.30;;;1.70;99.90;;;;;;5031236;28;20221;-67
2022/03/02 07:02:39;;;;;;;38.17;16.57;;;1.60;99.90;;;;;;5030644;28;20217;-67
2022/03/02 07:05:08;;;;;;;39.97;16.87;;;1.60;99.90;;;;;;5031239;28;20599;-67
2022/03/02 07:07:35;;;;;;;37.10;16.73;;;1.60;99.90;;;;;;5031237;28;20209;-67
2022/03/02 07:10:04;;;;;;;37.23;16.70;;;1.60;99.90;;;;;;5030934;28;20230;-68
2022/03/02 07:12:31;;;;;;;38.07;17.40;;;1.60;99.90;;;;;;5031176;28;20205;-67
2022/03/02 07:14:58;;;;;;;34.90;16.57;;;1.60;99.90;;;;;;5030646;28;20255;-67
2022/03/02 07:17:26;;;;;;;37.43;16.40;;;1.60;99.90;;;;;;5030489;28;20230;-68
2022/03/02 07:19:54;;;;;;;36.23;15.73;;;1.70;99.90;;;;;;5029994;28;20210;-67
2022/03/02 07:22:22;;;;;;;34.73;15.87;;;1.70;99.90;;;;;;5030846;28;20688;-67
2022/03/02 07:24:53;;;;;;;39.30;17.43;;;1.70;99.90;;;;;;5030977;28;20349;-67
2022/03/02 07:27:23;;;;;;;39.17;17.13;;;1.70;99.90;;;;;;5030507;28;20234;-67
2022/03/02 07:29:52;;;;;;;39.43;16.03;;;1.70;99.90;;;;;;5030849;28;20206;-67
2022/03/02 07:32:22;;;;;;;42.73;18.13;;;1.80;99.90;;;;;;5030656;28;20221;-67
2022/03/02 07:34:54;;;;;;;38.70;17.33;;;1.80;99.90;;;;;;5030718;28;20210;-67
2022/03/02 07:37:21;;;;;;;41.23;17.23;;;1.80;99.90;;;;;;5030298;28;20216;-68
2022/03/02 07:39:49;;;;;;;41.37;17.97;;;1.80;99.90;;;;;;5030308;28;20206;-67
2022/03/02 07:42:16;;;;;;;41.93;18.07;;;1.80;99.90;;;;;;5030479;28;20235;-68
2022/03/02 07:44:45;;;;;;;48.83;19.23;;;1.90;99.90;;;;;;5030997;28;20556;-66
2022/03/02 07:47:12;;;;;;;42.37;19.03;;;1.80;99.90;;;;;;5030328;28;20563;-67
2022/03/02 07:49:39;;;;;;;43.63;18.90;;;1.80;99.90;;;;;;5030520;28;20206;-67
2022/03/02 07:52:07;;;;;;;42.00;18.13;;;1.90;99.90;;;;;;5030206;28;20202;-69
2022/03/02 07:54:37;;;;;;;41.57;19.07;;;1.90;99.90;;;;;;5030234;28;20217;-68
2022/03/02 07:57:06;;;;;;;40.60;18.73;;;1.90;99.90;;;;;;5030255;28;20275;-67
2022/03/02 07:59:36;;;;;;;45.80;18.73;;;1.90;99.90;;;;;;5029996;28;20206;-67
2022/03/02 08:02:06;;;;;;;41.07;19.13;;;1.90;99.90;;;;;;5029904;28;20221;-67
2022/03/02 08:04:33;;;;;;;42.47;17.67;;;1.90;99.90;;;;;;5030200;28;20679;-67
2022/03/02 08:07:00;;;;;;;43.57;18.40;;;1.90;99.90;;;;;;5030149;28;20203;-66
2022/03/02 08:09:27;;;;;;;45.17;19.23;;;1.90;99.90;;;;;;5030095;28;20230;-67
2022/03/02 08:11:53;;;;;;;44.33;17.87;;;1.80;99.90;;;;;;5029821;28;20210;-67
2022/03/02 08:14:24;;;;;;;39.80;16.93;;;1.90;99.90;;;;;;5029898;28;20664;-67
2022/03/02 08:16:51;;;;;;;38.70;16.17;;;1.90;99.90;;;;;;5029807;28;20211;-66
2022/03/02 08:19:21;;;;;;;40.73;17.67;;;1.90;99.90;;;;;;5029630;28;20221;-68
2022/03/02 08:21:54;;;;;;;36.57;16.90;;;1.90;99.90;;;;;;5029738;28;20593;-68
2022/03/02 08:24:23;;;;;;;48.40;18.50;;;1.80;99.90;;;;;;5029774;28;20193;-66
2022/03/02 08:26:53;;;;;;;41.83;17.60;;;1.90;99.90;;;;;;5029455;28;20206;-68
2022/03/02 08:29:21;;;;;;;38.13;17.27;;;2.00;99.90;;;;;;5029364;28;20242;-67
2022/03/02 08:31:48;;;;;;;42.77;18.13;;;2.00;99.90;;;;;;5029649;28;20560;-67
2022/03/02 08:34:15;;;;;;;40.17;17.27;;;2.10;99.90;;;;;;5029636;28;20206;-67
2022/03/02 08:36:45;;;;;;;40.20;17.50;;;2.10;99.90;;;;;;5029481;28;20234;-67
2022/03/02 08:39:13;;;;;;;40.97;16.20;;;2.20;99.90;;;;;;5029551;28;20651;-68
2022/03/02 08:41:40;;;;;;;38.17;16.47;;;2.30;99.90;;;;;;5029617;28;20675;-67
2022/03/02 08:44:08;;;;;;;37.43;15.90;;;2.30;99.90;;;;;;5029496;28;20206;-67
2022/03/02 08:46:35;;;;;;;37.97;16.30;;;2.20;99.90;;;;;;5029531;28;20594;-67
2022/03/02 08:49:02;;;;;;;41.50;16.97;;;2.30;99.90;;;;;;5029269;28;20202;-67
2022/03/02 08:51:29;;;;;;;37.83;16.43;;;2.30;99.90;;;;;;5029675;28;20247;-68
2022/03/02 08:54:01;;;;;;;38.60;16.07;;;2.30;99.90;;;;;;5028981;28;20210;-66
2022/03/02 08:56:28;;;;;;;37.23;15.40;;;2.30;99.90;;;;;;5029506;28;20190;-68
2022/03/02 08:58:55;;;;;;;36.43;15.50;;;2.30;99.90;;;;;;5029357;28;20241;-69
2022/03/02 09:01:23;;;;;;;39.07;16.47;;;2.40;99.90;;;;;;5029048;28;20206;-67
2022/03/02 09:03:53;;;;;;;38.10;16.07;;;2.40;99.90;;;;;;5029461;28;20711;-67
2022/03/02 09:06:21;;;;;;;38.07;15.93;;;2.40;99.90;;;;;;5029329;28;20210;-69
2022/03/02 09:08:49;;;;;;;36.83;16.60;;;2.50;99.90;;;;;;5029185;28;20301;-69
2022/03/02 09:11:17;;;;;;;33.27;15.20;;;2.60;99.90;;;;;;5028979;28;20566;-67
2022/03/02 09:13:44;;;;;;;34.53;14.87;;;2.60;99.90;;;;;;5028927;28;20299;-68
2022/03/02 09:16:11;;;;;;;33.37;14.73;;;2.70;99.90;;;;;;5028978;28;20210;-67
2022/03/02 09:18:38;;;;;;;33.63;14.83;;;2.70;99.90;;;;;;5028533;28;20275;-66
2022/03/02 09:21:06;;;;;;;32.07;14.63;;;2.70;99.90;;;;;;5029040;28;20581;-67
2022/03/02 09:23:38;;;;;;;30.57;13.90;;;2.70;99.90;;;;;;5028741;28;20572;-67
2022/03/02 09:26:07;;;;;;;30.80;14.30;;;2.80;99.90;;;;;;5028953;28;20225;-67
2022/03/02 09:28:37;;;;;;;30.80;14.07;;;2.80;99.90;;;;;;5028527;28;20238;-67
2022/03/02 09:31:06;;;;;;;30.40;13.70;;;2.80;99.90;;;;;;5028525;28;20193;-67
2022/03/02 09:33:34;;;;;;;28.53;12.70;;;2.90;99.90;;;;;;5028900;28;20210;-67
2022/03/02 09:36:04;;;;;;;30.07;13.37;;;2.90;99.90;;;;;;5028724;28;20233;-68
2022/03/02 09:38:32;;;;;;;29.77;12.97;;;2.90;99.90;;;;;;5028782;28;20221;-68
2022/03/02 09:41:04;;;;;;;27.33;13.37;;;2.90;99.90;;;;;;5028680;28;20213;-67
2022/03/02 09:43:33;;;;;;;29.60;12.87;;;2.90;99.90;;;;;;5028198;28;20347;-68
2022/03/02 09:46:04;;;;;;;32.77;13.43;;;2.90;99.90;;;;;;5028751;28;20225;-66
2022/03/02 09:48:34;;;;;;;27.17;11.40;;;3.00;99.90;;;;;;5028712;28;20191;-66
2022/03/02 09:51:02;;;;;;;26.73;12.33;;;3.00;99.90;;;;;;5028387;28;20208;-67
2022/03/02 09:53:31;;;;;;;27.87;12.33;;;3.10;99.90;;;;;;5028840;28;20206;-68
2022/03/02 09:56:01;;;;;;;26.87;12.00;;;3.10;99.90;;;;;;5028518;28;20202;-68
2022/03/02 09:58:28;;;;;;;27.60;12.97;;;3.00;99.90;;;;;;5028294;28;20214;-67
2022/03/02 10:00:58;;;;;;;26.73;12.50;;;3.00;99.90;;;;;;5028570;28;20206;-66
2022/03/02 10:03:32;;;;;;;25.67;12.17;;;3.00;99.90;;;;;;5028577;28;20210;-67
2022/03/02 10:06:04;;;;;;;28.83;12.53;;;3.10;99.90;;;;;;5028028;28;20670;-67
2022/03/02 10:08:34;;;;;;;27.03;12.70;;;3.10;99.90;;;;;;5028174;28;20202;-66
2022/03/02 10:11:05;;;;;;;26.97;12.93;;;3.10;99.90;;;;;;5028283;28;20191;-67
2022/03/02 10:13:33;;;;;;;29.23;12.30;;;3.10;99.90;;;;;;5028383;28;20599;-67
2022/03/02 10:16:02;;;;;;;24.67;12.27;;;3.00;99.90;;;;;;5028311;28;20210;-66
2022/03/02 10:18:35;;;;;;;25.43;12.43;;;3.10;99.90;;;;;;5028276;28;20242;-68
2022/03/02 10:21:05;;;;;;;27.23;12.30;;;3.10;99.90;;;;;;5027925;28;20202;-67
2022/03/02 10:23:40;;;;;;;23.60;11.20;;;3.10;99.90;;;;;;5027976;28;20194;-67
2022/03/02 10:26:18;;;;;;;25.60;11.47;;;3.10;99.90;;;;;;5028233;28;20257;-66
2022/03/02 10:28:51;;;;;;;25.77;11.20;;;3.10;99.90;;;;;;5027824;28;20734;-66
2022/03/02 10:31:45;;;;;;;25.33;11.53;;;3.10;99.90;;;;;;5028226;28;20190;-66
2022/03/02 10:34:29;;;;;;;25.37;10.97;;;3.20;99.90;;;;;;5028116;28;20191;-67
2022/03/02 10:37:09;;;;;;;23.30;11.70;;;3.20;99.90;;;;;;5027810;28;20201;-67
2022/03/02 10:39:50;;;;;;;26.03;11.77;;;3.30;99.90;;;;;;5027984;28;20199;-67
2022/03/02 10:42:22;;;;;;;23.23;11.47;;;3.40;99.90;;;;;;5028006;28;20285;-67
2022/03/02 10:44:59;;;;;;;22.33;10.67;;;3.40;99.90;;;;;;5027777;28;20190;-67
2022/03/02 10:47:29;;;;;;;23.27;11.40;;;3.50;99.90;;;;;;5027761;28;20282;-67
2022/03/02 10:49:59;;;;;;;25.13;11.63;;;3.60;99.90;;;;;;5027739;28;20567;-67
2022/03/02 10:52:29;;;;;;;22.57;10.60;;;3.50;99.90;;;;;;5027810;28;20297;-67
2022/03/02 10:54:57;;;;;;;22.00;10.70;;;3.50;99.90;;;;;;5029038;28;20210;-67
2022/03/02 10:57:25;;;;;;;20.37;10.43;;;3.50;99.90;;;;;;5031198;28;20279;-67
2022/03/02 10:59:53;;;;;;;21.77;10.23;;;3.40;99.90;;;;;;5031300;28;20202;-66
2022/03/02 11:02:23;;;;;;;21.50;10.37;;;3.40;99.90;;;;;;5031709;28;20213;-68
2022/03/02 11:04:51;;;;;;;19.77;10.10;;;3.40;99.90;;;;;;5031393;28;20730;-66
2022/03/02 11:07:20;;;;;;;19.83;9.90;;;3.40;99.90;;;;;;5030846;28;20206;-67
2022/03/02 11:09:50;;;;;;;17.93;9.33;;;3.40;99.90;;;;;;5031043;28;20588;-68
2022/03/02 11:12:20;;;;;;;19.33;9.83;;;3.50;99.90;;;;;;5030705;28;20206;-68
2022/03/02 11:14:57;;;;;;;18.20;9.07;;;3.50;99.90;;;;;;5030984;28;20210;-68
2022/03/02 11:17:26;;;;;;;20.57;10.80;;;3.60;99.90;;;;;;5031065;28;20206;-68
2022/03/02 11:19:53;;;;;;;20.10;9.33;;;3.60;99.90;;;;;;5030667;28;20217;-68
2022/03/02 11:22:23;;;;;;;19.37;9.47;;;3.60;99.90;;;;;;5030987;28;20271;-68
2022/03/02 11:24:56;;;;;;;18.07;9.03;;;3.50;99.90;;;;;;5030707;28;20206;-68
2022/03/02 11:27:31;;;;;;;18.50;8.20;;;3.60;99.90;;;;;;5030807;28;20328;-68
2022/03/02 11:30:07;;;;;;;16.83;8.37;;;3.50;99.90;;;;;;5030857;28;20582;-68
2022/03/02 11:32:35;;;;;;;16.77;8.27;;;3.40;99.90;;;;;;5030297;28;20194;-69
2022/03/02 11:35:03;;;;;;;17.53;8.93;;;3.40;99.90;;;;;;5030451;28;20222;-69
2022/03/02 11:37:32;;;;;;;15.90;8.83;;;3.30;99.90;;;;;;5030432;28;20228;-68
2022/03/02 11:40:00;;;;;;;15.50;8.53;;;3.30;99.90;;;;;;5030440;28;20209;-69
2022/03/02 11:42:31;;;;;;;16.00;8.30;;;3.40;99.90;;;;;;5030719;28;20202;-69
2022/03/02 11:45:00;;;;;;;18.43;8.90;;;3.40;99.90;;;;;;5030939;28;20209;-68
2022/03/02 11:47:34;;;;;;;17.80;8.67;;;3.40;99.90;;;;;;5030395;28;20297;-69
2022/03/02 11:50:01;;;;;;;20.27;9.63;;;3.40;99.90;;;;;;5030603;28;20190;-69
2022/03/02 11:52:30;;;;;;;17.07;8.90;;;3.50;99.90;;;;;;5030745;28;20565;-68
2022/03/02 11:55:00;;;;;;;17.80;9.00;;;3.50;99.90;;;;;;5030351;28;20206;-68
2022/03/02 11:57:30;;;;;;;15.63;8.17;;;3.50;99.90;;;;;;5030958;28;20577;-68
2022/03/02 12:00:12;;;;;;;14.97;7.73;;;3.50;99.90;;;;;;5030635;28;20690;-69
2022/03/02 12:02:44;;;;;;;15.30;7.73;;;3.50;99.90;;;;;;5030496;28;20201;-69
2022/03/02 12:05:11;;;;;;;21.17;9.73;;;3.60;99.90;;;;;;5029935;28;20567;-67
2022/03/02 12:07:40;;;;;;;14.87;7.67;;;3.60;99.90;;;;;;5030667;28;20209;-69
2022/03/02 12:10:20;;;;;;;16.70;8.30;;;3.50;99.90;;;;;;5030595;28;20222;-68
2022/03/02 12:12:47;;;;;;;15.53;9.00;;;3.60;99.90;;;;;;5030161;28;20198;-69
2022/03/02 12:15:14;;;;;;;22.03;9.70;;;3.50;99.90;;;;;;5030234;28;20206;-68
2022/03/02 12:17:41;;;;;;;18.50;9.40;;;3.40;99.90;;;;;;5029921;28;20229;-69
2022/03/02 12:20:11;;;;;;;18.30;9.43;;;3.40;99.90;;;;;;5030103;28;20644;-68
2022/03/02 12:22:39;;;;;;;16.97;8.57;;;3.40;99.90;;;;;;5029984;28;20213;-69
2022/03/02 12:25:09;;;;;;;18.23;9.03;;;3.30;99.90;;;;;;5029786;28;20705;-68
2022/03/02 12:27:37;;;;;;;19.93;9.07;;;3.30;99.90;;;;;;5029542;28;20356;-68
2022/03/02 12:30:07;;;;;;;19.73;10.30;;;3.40;99.90;;;;;;5029694;28;20295;-68
2022/03/02 12:32:36;;;;;;;18.90;9.37;;;3.30;99.90;;;;;;5029793;28;20551;-69
2022/03/02 12:35:06;;;;;;;21.53;10.43;;;3.40;99.90;;;;;;5029567;28;20206;-68
2022/03/02 12:37:33;;;;;;;19.60;9.93;;;3.40;99.90;;;;;;5029486;28;20244;-69
2022/03/02 12:40:00;;;;;;;19.43;9.00;;;3.40;99.90;;;;;;5029587;28;20270;-68
2022/03/02 12:42:27;;;;;;;18.80;9.03;;;3.40;99.90;;;;;;5029314;28;20297;-69
2022/03/02 12:44:57;;;;;;;16.87;8.30;;;3.40;99.90;;;;;;5029808;28;20218;-68